Time;durP1;ratioP1;P1;durP2;ratioP2;P2;SDS_P1;SDS_P2;PMS_P1;PMS_P2;Temp;Humidity;BMP_temperature;BMP_pressure;BME280_temperature;BME280_humidity;BME280_pressure;Samples;Min_cycle;Max_cycle;Signal;HPM_P1;HPM_P2
2021/05/01 11:37:07;;;;;;;5.68;4.07;;;24.20;43.30;;;;;;5169282;27;20295;-48
2021/05/01 11:39:40;;;;;;;8.85;4.00;;;24.70;42.70;;;;;;5152857;27;20035;-42
2021/05/01 11:42:07;;;;;;;6.90;3.80;;;24.80;42.30;;;;;;5154203;27;20038;-42
2021/05/01 11:44:33;;;;;;;6.38;4.18;;;24.90;42.50;;;;;;5153798;27;20046;-42
2021/05/01 11:47:06;;;;;;;6.38;4.25;;;25.00;42.40;;;;;;5154421;27;20038;-43
2021/05/01 11:49:32;;;;;;;13.73;8.60;;;25.10;41.80;;;;;;5153668;27;20038;-43
2021/05/01 11:52:10;;;;;;;10.65;5.70;;;25.20;41.40;;;;;;5154131;27;20429;-46
2021/05/01 11:54:44;;;;;;;9.43;5.78;;;25.30;41.00;;;;;;5153973;27;20050;-44
2021/05/01 11:57:37;;;;;;;13.02;9.18;;;25.40;40.70;;;;;;5154062;27;20023;-42
2021/05/01 12:00:04;;;;;;;7.88;5.93;;;25.60;40.30;;;;;;5153638;27;20035;-42
2021/05/01 12:02:43;;;;;;;6.40;4.90;;;25.70;40.20;;;;;;5153937;27;20299;-46
2021/05/01 12:05:17;;;;;;;6.75;4.45;;;25.80;39.60;;;;;;5153401;27;20068;-47
2021/05/01 12:07:45;;;;;;;7.50;4.85;;;25.90;39.40;;;;;;5154044;27;20026;-46
2021/05/01 12:10:14;;;;;;;9.75;5.15;;;26.00;39.20;;;;;;5135781;27;20027;-43
2021/05/01 12:13:04;;;;;;;5.78;4.47;;;26.10;39.30;;;;;;5153891;27;20023;-45
2021/05/01 12:15:35;;;;;;;6.28;4.30;;;26.20;39.40;;;;;;5154024;27;20031;-46
2021/05/01 12:18:02;;;;;;;5.78;3.90;;;26.30;39.10;;;;;;5153805;27;20027;-43
2021/05/01 12:20:29;;;;;;;5.68;4.28;;;26.40;38.90;;;;;;5153878;27;20399;-44
2021/05/01 12:23:08;;;;;;;5.85;4.45;;;26.40;38.80;;;;;;5153673;27;20038;-45
2021/05/01 12:25:40;;;;;;;5.22;4.00;;;26.50;38.90;;;;;;5154011;27;20066;-47
2021/05/01 12:28:09;;;;;;;8.07;4.93;;;26.60;38.60;;;;;;5153779;27;20031;-43
2021/05/01 12:30:40;;;;;;;13.02;8.35;;;26.70;38.70;;;;;;5153893;27;20027;-44
2021/05/01 12:33:28;;;;;;;9.85;7.22;;;26.80;39.00;;;;;;5153596;27;20031;-47
2021/05/01 12:36:07;;;;;;;7.00;4.45;;;27.00;38.60;;;;;;5153299;27;20049;-44
2021/05/01 12:38:35;;;;;;;9.20;5.10;;;27.10;38.40;;;;;;5153751;27;20361;-44
2021/05/01 12:41:07;;;;;;;4.80;4.03;;;27.20;38.50;;;;;;5153841;27;20084;-44
2021/05/01 12:43:32;;;;;;;7.05;4.32;;;27.40;38.00;;;;;;5153270;27;20590;-43
2021/05/01 12:46:00;;;;;;;6.35;4.00;;;27.50;38.00;;;;;;5153684;27;20038;-44
2021/05/01 12:48:44;;;;;;;8.90;4.85;;;27.60;38.00;;;;;;5139855;27;20376;-43
2021/05/01 12:51:18;;;;;;;8.27;5.18;;;27.70;37.90;;;;;;5139498;27;20402;-44
2021/05/01 12:53:44;;;;;;;10.50;6.68;;;27.80;37.70;;;;;;5139603;27;20031;-43
2021/05/01 12:56:23;;;;;;;7.88;5.78;;;27.80;37.40;;;;;;5139739;27;20035;-44
2021/05/01 12:59:09;;;;;;;9.10;6.15;;;27.80;37.10;;;;;;5139328;27;20027;-45
2021/05/01 13:01:35;;;;;;;8.52;4.72;;;27.80;37.70;;;;;;5139571;27;20041;-43
2021/05/01 13:04:19;;;;;;;6.78;4.85;;;27.80;37.70;;;;;;5139289;27;20385;-43
2021/05/01 13:06:51;;;;;;;9.25;5.78;;;27.70;37.50;;;;;;5139558;27;20376;-44
2021/05/01 13:09:21;;;;;;;8.02;5.43;;;27.60;37.70;;;;;;5139302;27;20031;-43
2021/05/01 13:12:10;;;;;;;7.30;5.40;;;27.40;37.90;;;;;;5139523;27;20325;-44
2021/05/01 13:14:44;;;;;;;7.93;4.93;;;27.20;38.30;;;;;;5138958;27;20132;-44
2021/05/01 13:17:10;;;;;;;7.43;4.53;;;27.00;38.80;;;;;;5139179;27;20408;-45
2021/05/01 13:19:45;;;;;;;9.80;4.35;;;26.90;39.20;;;;;;5138856;27;20019;-43
2021/05/01 13:22:20;;;;;;;5.28;3.95;;;26.70;39.40;;;;;;5138755;27;20110;-43
2021/05/01 13:24:47;;;;;;;8.98;5.60;;;26.60;39.80;;;;;;5138768;27;20055;-43
2021/05/01 13:27:14;;;;;;;6.68;4.63;;;26.40;39.10;;;;;;5138707;27;20156;-44
2021/05/01 13:29:43;;;;;;;7.07;5.03;;;26.30;39.10;;;;;;5120331;27;20493;-46
2021/05/01 13:32:11;;;;;;;5.18;4.40;;;26.10;39.00;;;;;;5120404;27;20035;-43
2021/05/01 13:34:38;;;;;;;7.00;5.00;;;25.90;39.10;;;;;;5138616;27;20024;-44
2021/05/01 13:37:05;;;;;;;7.93;4.90;;;25.80;39.10;;;;;;5138944;27;20372;-44
2021/05/01 13:39:35;;;;;;;8.20;5.30;;;25.60;39.20;;;;;;5138868;27;20038;-43
2021/05/01 13:42:07;;;;;;;6.95;4.95;;;25.60;39.00;;;;;;5138656;27;20035;-45
2021/05/01 13:44:41;;;;;;;7.15;5.65;;;25.60;39.30;;;;;;5138763;27;20458;-44
2021/05/01 13:47:24;;;;;;;6.93;5.35;;;25.80;39.20;;;;;;5138570;27;20072;-44
2021/05/01 13:49:53;;;;;;;9.90;7.35;;;26.00;39.20;;;;;;5138267;27;20022;-45
2021/05/01 13:52:27;;;;;;;8.70;7.63;;;26.20;38.40;;;;;;5138378;27;20037;-44
2021/05/01 13:54:54;;;;;;;11.13;7.82;;;26.50;38.40;;;;;;5138317;27;20068;-46
2021/05/01 13:57:29;;;;;;;10.35;8.05;;;26.70;38.40;;;;;;5137920;27;20027;-50
2021/05/01 14:00:01;;;;;;;13.85;9.77;;;27.00;38.00;;;;;;5137114;27;20647;-47
2021/05/01 14:02:44;;;;;;;13.95;10.38;;;27.10;37.60;;;;;;5138366;27;20023;-47
2021/05/01 14:05:10;;;;;;;19.05;10.00;;;27.20;37.30;;;;;;5138254;27;20122;-45
2021/05/01 14:07:36;;;;;;;9.98;7.88;;;27.20;37.40;;;;;;5138159;27;20118;-44
2021/05/01 14:10:04;;;;;;;11.35;8.65;;;27.10;37.30;;;;;;5137779;27;20059;-46
2021/05/01 14:12:31;;;;;;;14.73;8.40;;;27.10;37.30;;;;;;5137961;27;20027;-44
2021/05/01 14:14:57;;;;;;;10.82;7.60;;;27.00;37.40;;;;;;5137968;27;20326;-45
2021/05/01 14:17:28;;;;;;;10.68;8.02;;;27.00;37.60;;;;;;5137787;27;20023;-44
2021/05/01 14:19:57;;;;;;;;;;;26.90;37.70;;;;;;5138196;27;20364;-46
2021/05/01 14:22:24;;;;;;;13.07;7.93;;;26.90;38.30;;;;;;5137427;27;19926;-48
2021/05/01 14:24:50;;;;;;;14.63;8.82;;;26.80;38.00;;;;;;5137633;27;20027;-44
2021/05/01 14:27:16;;;;;;;16.65;9.13;;;26.90;37.80;;;;;;5137555;27;20034;-46
2021/05/01 14:29:59;;;;;;;11.30;6.97;;;27.00;37.70;;;;;;5137304;27;20026;-44
2021/05/01 14:32:26;;;;;;;9.35;6.55;;;27.10;37.70;;;;;;5137648;27;20027;-45
2021/05/01 14:34:55;;;;;;;11.35;8.13;;;27.20;37.40;;;;;;5137042;27;20019;-45
2021/05/01 14:37:22;;;;;;;13.00;7.88;;;27.20;37.10;;;;;;5137214;27;20019;-50
2021/05/01 14:39:49;;;;;;;15.93;10.15;;;27.30;37.00;;;;;;5137503;27;20072;-45
2021/05/01 14:42:16;;;;;;;13.02;10.15;;;27.20;36.80;;;;;;5137149;27;20019;-48
2021/05/01 14:44:42;;;;;;;11.82;8.30;;;27.10;36.90;;;;;;5137492;27;20104;-45
2021/05/01 14:47:15;;;;;;;12.60;8.85;;;26.90;37.10;;;;;;5137159;27;20061;-47
2021/05/01 14:49:43;;;;;;;11.32;8.23;;;26.70;37.40;;;;;;5136034;27;20019;-44
2021/05/01 14:52:09;;;;;;;13.93;10.48;;;26.50;37.80;;;;;;5137231;27;20310;-46
2021/05/01 14:54:38;;;;;;;13.48;9.88;;;26.40;38.10;;;;;;5137061;27;20023;-43
2021/05/01 14:57:06;;;;;;;12.93;9.93;;;26.30;38.40;;;;;;5136894;27;20042;-46
2021/05/01 14:59:34;;;;;;;14.77;12.00;;;26.30;38.50;;;;;;5137315;27;20045;-45
2021/05/01 15:02:21;;;;;;;15.05;9.48;;;26.20;38.40;;;;;;5137058;27;20053;-45
2021/05/01 15:04:58;;;;;;;13.95;10.05;;;26.20;38.60;;;;;;5137154;27;20019;-44
2021/05/01 15:07:51;;;;;;;10.73;8.50;;;26.20;39.20;;;;;;5137100;27;20046;-46
2021/05/01 15:10:26;;;;;;;15.30;7.53;;;26.20;38.80;;;;;;5136876;27;20041;-44
2021/05/01 15:13:06;;;;;;;9.90;6.93;;;26.10;38.90;;;;;;5136311;27;20045;-44
2021/05/01 15:15:31;;;;;;;13.13;7.05;;;26.10;38.90;;;;;;5137058;27;20116;-45
2021/05/01 15:18:04;;;;;;;9.05;6.22;;;26.10;39.00;;;;;;5137011;27;20087;-45
2021/05/01 15:20:39;;;;;;;10.23;7.07;;;26.10;38.90;;;;;;5136904;27;20027;-48
2021/05/01 15:23:24;;;;;;;10.52;7.70;;;26.00;39.30;;;;;;5136619;27;20102;-43
2021/05/01 15:26:04;;;;;;;9.07;6.68;;;26.00;38.50;;;;;;5136967;27;20034;-48
2021/05/01 15:28:31;;;;;;;10.07;7.00;;;25.90;38.60;;;;;;5136964;27;20110;-44
2021/05/01 15:30:58;;;;;;;10.85;7.07;;;25.80;38.70;;;;;;5137012;27;20035;-44
2021/05/01 15:33:27;;;;;;;8.88;6.93;;;25.60;38.70;;;;;;5136551;27;20057;-43
2021/05/01 15:35:55;;;;;;;10.63;7.25;;;25.50;38.90;;;;;;5136494;28;20134;-44
2021/05/01 15:38:21;;;;;;;9.13;5.97;;;25.30;39.20;;;;;;5136572;27;20027;-44
2021/05/01 15:40:48;;;;;;;8.85;5.30;;;25.20;39.50;;;;;;5136418;28;20057;-43
2021/05/01 15:43:14;;;;;;;10.00;7.57;;;25.10;39.70;;;;;;5136256;27;20023;-43
2021/05/01 15:45:42;;;;;;;9.73;8.00;;;24.90;39.90;;;;;;5136627;28;20050;-44
2021/05/01 15:48:09;;;;;;;7.05;6.03;;;24.80;40.30;;;;;;5136448;27;20042;-43
2021/05/01 15:50:35;;;;;;;8.27;5.70;;;24.60;40.40;;;;;;5136862;28;20050;-45
2021/05/01 15:53:04;;;;;;;9.18;6.30;;;24.40;40.60;;;;;;5136795;27;20030;-45
2021/05/01 15:55:31;;;;;;;7.60;6.10;;;24.30;41.00;;;;;;5136519;28;20055;-43
2021/05/01 15:57:59;;;;;;;6.72;5.53;;;24.10;41.00;;;;;;5136721;27;20028;-46
2021/05/01 16:00:26;;;;;;;7.95;5.68;;;24.00;41.30;;;;;;5136605;28;20041;-45
2021/05/01 16:02:52;;;;;;;8.23;5.65;;;23.90;41.60;;;;;;5136431;27;20095;-47
2021/05/01 16:05:18;;;;;;;14.00;6.13;;;23.70;41.60;;;;;;5136683;28;20069;-44
2021/05/01 16:07:44;;;;;;;8.63;5.47;;;23.60;42.00;;;;;;5136333;27;20111;-48
2021/05/01 16:10:13;;;;;;;7.53;5.85;;;23.50;42.40;;;;;;5136619;28;20031;-47
2021/05/01 16:12:40;;;;;;;8.35;5.40;;;23.40;42.70;;;;;;5136645;27;20284;-45
2021/05/01 16:15:07;;;;;;;9.23;6.43;;;23.20;42.80;;;;;;5136585;28;20035;-45
2021/05/01 16:17:34;;;;;;;7.18;6.10;;;23.00;43.20;;;;;;5136106;27;20411;-46
2021/05/01 16:20:01;;;;;;;9.82;6.13;;;22.90;43.50;;;;;;5136460;28;20404;-43
2021/05/01 16:22:28;;;;;;;6.50;5.20;;;22.80;43.60;;;;;;5137726;27;20114;-44
2021/05/01 16:24:53;;;;;;;7.50;5.70;;;22.60;43.80;;;;;;5140241;27;20041;-45
2021/05/01 16:27:19;;;;;;;7.75;5.57;;;22.50;43.90;;;;;;5139866;27;20311;-43
2021/05/01 16:29:45;;;;;;;6.97;5.65;;;22.40;44.30;;;;;;5140263;27;20019;-46
2021/05/01 16:32:11;;;;;;;9.02;5.80;;;22.30;44.50;;;;;;5139962;27;20526;-47
2021/05/01 16:34:38;;;;;;;8.13;5.00;;;22.20;44.60;;;;;;5139984;27;20102;-43
2021/05/01 16:37:05;;;;;;;9.77;6.38;;;22.10;44.70;;;;;;5139584;27;20111;-43
2021/05/01 16:39:30;;;;;;;7.88;5.93;;;22.00;44.60;;;;;;5140131;27;20099;-45
2021/05/01 16:41:58;;;;;;;13.30;5.40;;;21.90;44.50;;;;;;5140219;27;20122;-44
2021/05/01 16:44:25;;;;;;;9.45;5.57;;;21.80;44.70;;;;;;5140112;27;20026;-45
2021/05/01 16:46:52;;;;;;;8.02;5.13;;;21.70;44.80;;;;;;5139965;27;20035;-44
2021/05/01 16:49:18;;;;;;;7.03;5.70;;;21.60;44.90;;;;;;5139823;27;20050;-43
2021/05/01 16:51:44;;;;;;;7.65;5.25;;;21.50;45.20;;;;;;5139915;27;20031;-44
2021/05/01 16:54:10;;;;;;;8.25;5.20;;;21.40;45.30;;;;;;5139784;27;20479;-43
2021/05/01 16:56:36;;;;;;;10.93;6.25;;;21.40;45.50;;;;;;5139783;27;20039;-48
2021/05/01 16:59:02;;;;;;;9.13;6.18;;;21.30;45.70;;;;;;5139674;27;20016;-46
2021/05/01 17:01:28;;;;;;;11.82;5.60;;;21.20;45.80;;;;;;5139640;27;20035;-44
2021/05/01 17:03:54;;;;;;;8.40;5.07;;;21.10;45.90;;;;;;5139169;27;20027;-45
2021/05/01 17:06:22;;;;;;;9.38;5.72;;;21.00;46.00;;;;;;5139685;27;20418;-43
2021/05/01 17:08:48;;;;;;;9.25;5.35;;;20.90;46.20;;;;;;5139152;27;20073;-44
2021/05/01 17:11:14;;;;;;;10.45;5.32;;;20.80;46.20;;;;;;5139594;27;20027;-44
2021/05/01 17:13:40;;;;;;;7.60;4.57;;;20.70;46.20;;;;;;5139259;27;20053;-43
2021/05/01 17:16:06;;;;;;;7.57;4.88;;;20.60;46.40;;;;;;5139357;27;20130;-46
2021/05/01 17:18:32;;;;;;;7.60;5.00;;;20.60;46.60;;;;;;5139125;27;20027;-45
2021/05/01 17:20:58;;;;;;;6.55;5.00;;;20.50;46.70;;;;;;5139455;27;20052;-43
2021/05/01 17:23:24;;;;;;;8.60;5.10;;;20.40;46.80;;;;;;5139089;27;20026;-43
2021/05/01 17:25:49;;;;;;;8.57;5.07;;;20.40;47.10;;;;;;5139275;27;20130;-44
2021/05/01 17:28:15;;;;;;;6.28;4.80;;;20.30;47.10;;;;;;5139257;27;20031;-45
2021/05/01 17:30:41;;;;;;;7.63;5.10;;;20.20;47.30;;;;;;5139063;27;20059;-43
2021/05/01 17:33:07;;;;;;;8.02;5.38;;;20.10;47.40;;;;;;5138711;27;20026;-44
2021/05/01 17:35:33;;;;;;;7.93;5.38;;;20.10;47.50;;;;;;5138658;27;20079;-42
2021/05/01 17:37:59;;;;;;;6.32;4.63;;;20.00;47.70;;;;;;5138861;27;20023;-42
2021/05/01 17:40:26;;;;;;;10.95;5.57;;;20.00;48.00;;;;;;5138828;27;20027;-42
2021/05/01 17:42:51;;;;;;;18.02;5.50;;;19.90;48.20;;;;;;5138511;27;20019;-43
2021/05/01 17:45:17;;;;;;;15.15;5.32;;;19.80;48.30;;;;;;5138729;27;20042;-44
2021/05/01 17:47:45;;;;;;;7.45;5.40;;;19.80;48.40;;;;;;5138656;27;20026;-43
2021/05/01 17:50:12;;;;;;;12.13;5.97;;;19.80;48.60;;;;;;5138791;27;20035;-44
2021/05/01 17:52:38;;;;;;;19.40;6.22;;;19.70;48.70;;;;;;5138636;27;20027;-46
2021/05/01 17:55:09;;;;;;;13.32;7.28;;;19.70;48.70;;;;;;5138424;27;20122;-45
2021/05/01 17:57:34;;;;;;;8.43;6.18;;;19.70;48.90;;;;;;5138724;27;20024;-45
2021/05/01 18:00:00;;;;;;;12.38;7.03;;;19.60;48.90;;;;;;5138452;27;20072;-46
2021/05/01 18:02:26;;;;;;;7.60;5.47;;;19.60;49.10;;;;;;5138017;27;20023;-44
2021/05/01 18:04:52;;;;;;;14.27;8.18;;;19.60;49.20;;;;;;5138156;27;20019;-45
2021/05/01 18:07:17;;;;;;;10.68;6.53;;;19.50;49.20;;;;;;5138148;27;20035;-46
2021/05/01 18:09:43;;;;;;;11.70;6.13;;;19.50;49.30;;;;;;5138354;27;20027;-44
2021/05/01 18:12:09;;;;;;;10.52;6.03;;;19.50;49.50;;;;;;5137997;27;20023;-46
2021/05/01 18:14:34;;;;;;;7.07;5.35;;;19.50;49.60;;;;;;5137904;27;20038;-43
2021/05/01 18:17:00;;;;;;;12.95;6.60;;;19.50;49.70;;;;;;5138073;27;20041;-42
2021/05/01 18:19:25;;;;;;;13.95;7.40;;;19.50;49.80;;;;;;5138259;27;20106;-45
2021/05/01 18:21:53;;;;;;;10.85;5.88;;;19.40;49.90;;;;;;5138385;27;20035;-48
2021/05/01 18:24:20;;;;;;;9.85;5.32;;;19.40;49.90;;;;;;5137900;27;20038;-43
2021/05/01 18:26:46;;;;;;;8.38;5.88;;;19.40;49.90;;;;;;5138332;27;20037;-45
2021/05/01 18:29:17;;;;;;;9.40;6.60;;;19.40;50.00;;;;;;5137761;27;20108;-45
2021/05/01 18:31:43;;;;;;;;;;;19.40;50.10;;;;;;5138409;27;20161;-46
2021/05/01 18:34:09;;;;;;;9.48;6.22;;;19.40;49.90;;;;;;5137747;27;19907;-42
2021/05/01 18:36:34;;;;;;;13.40;7.32;;;19.30;50.00;;;;;;5136956;27;20054;-44
2021/05/01 18:39:01;;;;;;;13.32;7.07;;;19.30;50.20;;;;;;5137293;27;20023;-45
2021/05/01 18:41:27;;;;;;;11.90;8.10;;;19.30;50.30;;;;;;5137898;27;20035;-43
2021/05/01 18:43:52;;;;;;;8.27;6.15;;;19.30;50.30;;;;;;5137235;27;20030;-46
2021/05/01 18:46:18;;;;;;;13.88;6.72;;;19.30;50.40;;;;;;5137297;27;20035;-42
2021/05/01 18:48:44;;;;;;;7.95;5.60;;;19.30;50.50;;;;;;5137574;27;20027;-44
2021/05/01 18:51:10;;;;;;;12.95;5.82;;;19.30;50.50;;;;;;5137791;27;20035;-45
2021/05/01 18:53:36;;;;;;;11.75;7.93;;;19.30;50.60;;;;;;5137221;27;20133;-42
2021/05/01 18:56:03;;;;;;;10.32;6.93;;;19.20;50.60;;;;;;5137395;27;20118;-46
2021/05/01 18:58:29;;;;;;;8.88;5.97;;;19.20;50.80;;;;;;5137011;27;20032;-45
2021/05/01 19:00:55;;;;;;;10.52;6.13;;;19.20;50.70;;;;;;5137476;27;20027;-45
2021/05/01 19:03:20;;;;;;;12.65;5.70;;;19.20;50.80;;;;;;5137058;27;20300;-42
2021/05/01 19:05:46;;;;;;;8.15;5.90;;;19.20;50.80;;;;;;5137150;27;20034;-42
2021/05/01 19:08:12;;;;;;;8.07;5.72;;;19.20;50.80;;;;;;5137172;27;20027;-43
2021/05/01 19:10:38;;;;;;;6.65;5.43;;;19.20;50.90;;;;;;5118845;27;20035;-46
2021/05/01 19:13:11;;;;;;;11.48;5.60;;;19.20;51.00;;;;;;5137044;27;20034;-44
2021/05/01 19:15:37;;;;;;;8.48;5.20;;;19.20;51.00;;;;;;5137187;27;20039;-42
2021/05/01 19:18:03;;;;;;;7.85;5.00;;;19.20;50.90;;;;;;5136870;27;20080;-42
2021/05/01 19:20:31;;;;;;;5.80;4.93;;;19.30;51.00;;;;;;5137241;27;20023;-44
2021/05/01 19:22:57;;;;;;;7.40;4.97;;;19.30;50.90;;;;;;5137136;27;20039;-42
2021/05/01 19:25:24;;;;;;;5.18;4.22;;;19.30;50.80;;;;;;5137044;27;20037;-47
2021/05/01 19:27:51;;;;;;;5.95;4.47;;;19.30;50.80;;;;;;5137121;27;20106;-42
2021/05/01 19:30:17;;;;;;;8.25;5.18;;;19.40;50.80;;;;;;5136908;27;20027;-45
2021/05/01 19:32:44;;;;;;;6.30;4.13;;;19.40;50.90;;;;;;5136837;27;20134;-45
2021/05/01 19:35:12;;;;;;;7.43;4.65;;;19.40;50.70;;;;;;5136554;28;20055;-44
2021/05/01 19:37:38;;;;;;;6.15;3.88;;;19.50;50.80;;;;;;5136655;27;20030;-44
2021/05/01 19:40:06;;;;;;;7.20;4.40;;;19.50;50.70;;;;;;5136833;28;20027;-45
2021/05/01 19:42:34;;;;;;;13.50;4.80;;;19.50;50.70;;;;;;5137228;27;20344;-44
2021/05/01 19:45:00;;;;;;;7.13;5.00;;;19.50;50.70;;;;;;5136853;28;20059;-43
2021/05/01 19:47:27;;;;;;;6.85;4.68;;;19.60;50.60;;;;;;5136558;27;20110;-46
2021/05/01 19:49:54;;;;;;;11.48;6.00;;;19.60;50.60;;;;;;5136713;28;20023;-48
2021/05/01 19:52:20;;;;;;;11.25;6.20;;;19.60;50.70;;;;;;5136824;27;20361;-46
2021/05/01 19:54:46;;;;;;;13.00;7.90;;;19.60;50.70;;;;;;5136980;28;20042;-44
2021/05/01 19:57:13;;;;;;;10.60;7.63;;;19.50;50.50;;;;;;5137574;27;20117;-44
2021/05/01 19:59:39;;;;;;;14.27;9.82;;;19.50;50.60;;;;;;5140709;27;20094;-46
2021/05/01 20:02:06;;;;;;;20.35;11.57;;;19.50;50.80;;;;;;5141075;27;20023;-44
2021/05/01 20:04:32;;;;;;;22.75;11.63;;;19.50;50.80;;;;;;5140872;27;20042;-44
2021/05/01 20:06:57;;;;;;;33.75;11.80;;;19.50;50.70;;;;;;5141046;27;20039;-43
2021/05/01 20:09:23;;;;;;;17.80;8.82;;;19.40;52.80;;;;;;5140893;27;20042;-44
2021/05/01 20:11:49;;;;;;;13.50;8.80;;;19.40;53.30;;;;;;5141064;27;20099;-42
2021/05/01 20:14:16;;;;;;;10.43;6.90;;;19.30;54.50;;;;;;5140903;27;20023;-42
2021/05/01 20:16:42;;;;;;;8.30;6.38;;;19.30;55.40;;;;;;5140948;27;20071;-42
2021/05/01 20:19:08;;;;;;;8.55;5.68;;;19.20;55.50;;;;;;5140574;27;20025;-49
2021/05/01 20:21:34;;;;;;;10.15;5.63;;;19.10;56.30;;;;;;5140914;27;20038;-48
2021/05/01 20:24:01;;;;;;;12.32;6.57;;;19.10;57.30;;;;;;5140177;27;20016;-45
2021/05/01 20:26:27;;;;;;;9.35;6.60;;;19.00;58.40;;;;;;5140790;27;20319;-42
2021/05/01 20:28:53;;;;;;;11.73;7.47;;;18.90;59.50;;;;;;5140545;27;20026;-45
2021/05/01 20:31:19;;;;;;;13.82;7.97;;;18.90;60.90;;;;;;5140662;27;20092;-41
2021/05/01 20:33:45;;;;;;;12.88;6.90;;;18.80;60.90;;;;;;5140726;27;20038;-44
2021/05/01 20:36:11;;;;;;;17.20;8.57;;;18.70;61.30;;;;;;5139845;27;20059;-44
2021/05/01 20:38:36;;;;;;;12.32;7.80;;;18.60;62.40;;;;;;5140224;27;20024;-43
2021/05/01 20:41:05;;;;;;;15.63;8.02;;;18.60;62.40;;;;;;5140023;27;20028;-44
2021/05/01 20:43:33;;;;;;;15.75;9.02;;;18.60;62.50;;;;;;5140419;27;20318;-41
2021/05/01 20:45:59;;;;;;;16.63;8.82;;;18.50;63.20;;;;;;5140258;27;20070;-41
2021/05/01 20:48:25;;;;;;;13.73;8.07;;;18.50;63.00;;;;;;5139943;27;20124;-45
2021/05/01 20:50:52;;;;;;;12.23;7.70;;;18.50;62.70;;;;;;5140169;27;20446;-41
2021/05/01 20:53:18;;;;;;;16.08;7.88;;;18.40;62.70;;;;;;5139783;27;20031;-41
2021/05/01 20:55:44;;;;;;;11.70;7.38;;;18.40;62.60;;;;;;5139921;27;20092;-41
2021/05/01 20:58:09;;;;;;;11.10;8.02;;;18.40;62.80;;;;;;5140026;27;20100;-47
2021/05/01 21:00:36;;;;;;;12.45;7.35;;;18.30;63.00;;;;;;5139821;27;20026;-41
2021/05/01 21:03:02;;;;;;;11.25;7.40;;;18.30;62.70;;;;;;5121356;27;20100;-48
2021/05/01 21:05:27;;;;;;;10.10;6.97;;;18.40;62.90;;;;;;5139770;27;20073;-45
2021/05/01 21:07:53;;;;;;;10.68;7.25;;;18.30;62.50;;;;;;5138836;27;20031;-45
2021/05/01 21:10:19;;;;;;;12.18;7.97;;;18.30;62.40;;;;;;5139647;27;20031;-45
2021/05/01 21:12:45;;;;;;;9.50;7.10;;;18.30;62.40;;;;;;5139435;27;20311;-46
2021/05/01 21:15:11;;;;;;;10.70;6.82;;;18.30;62.00;;;;;;5139410;27;20044;-42
2021/05/01 21:17:40;;;;;;;9.27;6.15;;;18.30;61.50;;;;;;5139314;27;20046;-41
2021/05/01 21:20:07;;;;;;;8.68;6.22;;;18.30;61.30;;;;;;5139571;27;20392;-41
2021/05/01 21:22:33;;;;;;;7.97;5.32;;;18.30;61.10;;;;;;5139154;27;20558;-45
2021/05/01 21:24:58;;;;;;;9.80;6.30;;;18.40;61.00;;;;;;5139245;27;20177;-41
2021/05/01 21:27:24;;;;;;;7.28;5.45;;;18.40;61.30;;;;;;5139134;27;20299;-43
2021/05/01 21:29:50;;;;;;;14.45;7.80;;;18.40;61.90;;;;;;5139156;27;20027;-41
2021/05/01 21:32:16;;;;;;;10.00;6.72;;;18.40;62.90;;;;;;5139059;27;20023;-48
2021/05/01 21:34:42;;;;;;;11.23;7.18;;;18.40;63.50;;;;;;5138965;27;20028;-41
2021/05/01 21:37:08;;;;;;;6.88;5.93;;;18.30;63.20;;;;;;5120750;27;20071;-41
2021/05/01 21:39:33;;;;;;;7.65;5.65;;;18.30;63.70;;;;;;5139007;27;20430;-45
2021/05/01 21:41:59;;;;;;;8.27;6.20;;;18.30;63.50;;;;;;5139136;27;20031;-43
2021/05/01 21:44:25;;;;;;;9.20;6.38;;;18.20;63.30;;;;;;5138929;27;20403;-42
2021/05/01 21:46:50;;;;;;;7.28;5.80;;;18.20;63.30;;;;;;5139214;27;20111;-43
2021/05/01 21:49:16;;;;;;;7.15;5.70;;;18.20;63.30;;;;;;5139065;27;20028;-44
2021/05/01 21:51:43;;;;;;;9.07;6.00;;;18.10;63.40;;;;;;5139120;27;20035;-41
2021/05/01 21:54:09;;;;;;;12.18;6.82;;;18.10;63.40;;;;;;5138917;27;20031;-42
2021/05/01 21:56:35;;;;;;;10.05;6.43;;;18.10;63.50;;;;;;5138956;27;20352;-46
2021/05/01 21:59:00;;;;;;;8.35;6.38;;;18.00;63.20;;;;;;5138846;27;20019;-43
2021/05/01 22:01:27;;;;;;;8.77;6.25;;;18.00;63.60;;;;;;5138982;27;20118;-41
2021/05/01 22:03:58;;;;;;;7.43;5.95;;;17.90;63.30;;;;;;5138741;27;20315;-41
2021/05/01 22:06:25;;;;;;;9.00;6.13;;;17.90;63.30;;;;;;5138848;27;20051;-41
2021/05/01 22:08:50;;;;;;;11.07;6.60;;;17.90;62.80;;;;;;5138709;27;20295;-44
2021/05/01 22:11:19;;;;;;;11.07;7.07;;;17.90;62.70;;;;;;5138347;27;20035;-41
2021/05/01 22:13:49;;;;;;;11.02;7.93;;;17.90;62.70;;;;;;5138610;27;20053;-41
2021/05/01 22:16:15;;;;;;;12.50;8.77;;;17.90;62.50;;;;;;5138608;27;20035;-44
2021/05/01 22:18:41;;;;;;;9.48;6.95;;;17.80;62.40;;;;;;5138451;27;20398;-45
2021/05/01 22:26:16;;;;;;;9.38;6.70;;;17.80;61.90;;;;;;5138475;27;20302;-45
2021/05/01 22:28:44;;;;;;;8.65;6.15;;;17.80;62.20;;;;;;5138356;27;20035;-44
2021/05/01 22:31:10;;;;;;;7.60;5.38;;;17.90;63.00;;;;;;5138361;27;20079;-40
2021/05/01 22:33:36;;;;;;;6.50;4.43;;;17.80;63.70;;;;;;5138077;27;20077;-45
2021/05/01 22:36:02;;;;;;;6.82;4.70;;;17.80;64.80;;;;;;5137664;27;20054;-41
2021/05/01 22:38:27;;;;;;;6.60;4.28;;;17.80;65.50;;;;;;5137802;27;20020;-45
2021/05/01 22:40:53;;;;;;;7.90;3.85;;;17.80;66.40;;;;;;5138074;27;20031;-44
2021/05/01 22:43:19;;;;;;;4.53;3.65;;;17.80;66.80;;;;;;5137984;27;20395;-47
2021/05/01 22:45:51;;;;;;;6.70;3.55;;;17.70;67.30;;;;;;5138052;27;20117;-41
2021/05/01 22:48:22;;;;;;;5.55;3.90;;;17.70;67.60;;;;;;5137968;27;20023;-41
2021/05/01 22:50:49;;;;;;;4.13;3.60;;;17.70;68.10;;;;;;5138024;27;20434;-41
2021/05/01 22:53:15;;;;;;;7.47;4.00;;;17.70;68.60;;;;;;5137430;27;20031;-41
2021/05/01 22:55:42;;;;;;;5.57;3.92;;;17.60;69.10;;;;;;5137656;27;20047;-45
2021/05/01 22:58:10;;;;;;;4.80;3.58;;;17.60;69.40;;;;;;5137697;27;20034;-45
2021/05/01 23:00:37;;;;;;;3.90;2.83;;;17.60;69.80;;;;;;5137665;27;20023;-44
2021/05/01 23:03:05;;;;;;;4.95;3.55;;;17.50;70.10;;;;;;5137359;27;20427;-45
2021/05/01 23:05:31;;;;;;;4.95;3.45;;;17.50;70.70;;;;;;5137455;27;20031;-40
2021/05/01 23:07:57;;;;;;;6.30;3.00;;;17.40;71.40;;;;;;5137332;27;20037;-41
2021/05/01 23:10:23;;;;;;;8.27;3.10;;;17.40;71.90;;;;;;5137248;27;20027;-44
2021/05/01 23:12:50;;;;;;;3.50;2.92;;;17.40;72.30;;;;;;5137170;27;20029;-41
2021/05/01 23:15:18;;;;;;;5.30;4.30;;;17.30;72.40;;;;;;5137200;27;20057;-41
2021/05/01 23:17:45;;;;;;;4.40;3.80;;;17.30;72.70;;;;;;5137389;27;20019;-41
2021/05/01 23:20:14;;;;;;;7.38;5.13;;;17.20;72.60;;;;;;5137174;27;20031;-41
2021/05/01 23:22:43;;;;;;;5.47;4.60;;;17.20;73.20;;;;;;5136991;27;20144;-41
2021/05/01 23:25:11;;;;;;;8.50;6.10;;;17.20;73.20;;;;;;5137101;27;20079;-43
2021/05/01 23:27:39;;;;;;;8.45;7.35;;;17.20;73.20;;;;;;5136799;27;20101;-44
2021/05/01 23:30:09;;;;;;;5.60;4.80;;;17.20;73.20;;;;;;5137369;27;20323;-45
2021/05/01 23:32:35;;;;;;;5.28;4.55;;;17.20;73.40;;;;;;5136727;27;20024;-47
2021/05/01 23:35:05;;;;;;;4.53;2.95;;;17.20;73.40;;;;;;5136948;27;20354;-40
2021/05/01 23:37:33;;;;;;;4.72;3.53;;;17.20;73.50;;;;;;5136900;27;20023;-45
2021/05/01 23:40:00;;;;;;;6.13;3.75;;;17.20;74.00;;;;;;5137056;28;20433;-40
2021/05/01 23:42:26;;;;;;;4.93;2.90;;;17.30;74.00;;;;;;5136648;27;20034;-47
2021/05/01 23:44:52;;;;;;;6.78;3.63;;;17.30;73.90;;;;;;5136924;28;20019;-41
2021/05/01 23:47:17;;;;;;;8.35;7.55;;;17.30;73.80;;;;;;5137024;27;20023;-46
2021/05/01 23:49:44;;;;;;;7.65;6.03;;;17.30;74.00;;;;;;5136860;28;20027;-44
2021/05/01 23:52:10;;;;;;;7.30;4.90;;;17.30;74.00;;;;;;5137012;27;20038;-41
2021/05/01 23:54:39;;;;;;;8.40;4.57;;;17.20;74.30;;;;;;5136652;28;20319;-43
2021/05/01 23:57:06;;;;;;;10.48;4.57;;;17.20;75.00;;;;;;5136920;27;20038;-44
2021/05/01 23:59:32;;;;;;;6.50;3.17;;;17.20;75.50;;;;;;5136778;28;20067;-44
